LIPQ/TRS METAR and TAF weather

Enter ICAO airport designator
Station Type Date Time Source
LIPQ METAR 2018/12/11 22:20 UTC NOAA

LIPQ 112220Z 03004KT 320V110 CAVOK 01/M04 Q1019


Station Type Date Time Source
LIPQ Decoded METAR 2018/12/11 22:20 UTC NOAA

Ronchi Dei Legionari, Italy (LIPQ) 45-49N 013-29E 12M
Dec 11, 2018 - 05:20 PM EST / 2018.12.11 2220 UTC
Wind: from the NNE (030 degrees) at 5 MPH (4 KT) (direction variable):0
Visibility: greater than 7 mile(s):0
Temperature: 33 F (1 C)
Windchill: 28 F (-2 C):1
Dew Point: 24 F (-4 C)
Relative Humidity: 69%
Pressure (altimeter): 30.09 in. Hg (1019 hPa)
ob: LIPQ 112220Z 03004KT 320V110 CAVOK 01/M04 Q1019
cycle: 22

Station Type Date Time Source
LIPQ TAF 2018/12/11 18:21 UTC NOAA

TAF LIPQ 111700Z 1118/1218 VRB05KT CAVOK


Example: see airport list